createdAt,value
2024-02-13T00:00:12.715Z,38.85
2024-02-13T00:02:42.260Z,43.35
2024-02-13T00:05:11.491Z,34.35
2024-02-13T00:07:41.018Z,36.10
2024-02-13T00:10:12.668Z,35.03
2024-02-13T00:12:41.966Z,36.50
2024-02-13T00:15:15.610Z,38.58
2024-02-13T00:17:45.976Z,36.15
2024-02-13T00:20:15.387Z,38.78
2024-02-13T00:22:44.046Z,36.88
2024-02-13T00:25:14.681Z,35.00
2024-02-13T00:27:43.944Z,33.58
2024-02-13T00:30:13.790Z,35.60
2024-02-13T00:32:43.756Z,35.13
2024-02-13T00:35:14.527Z,35.00
2024-02-13T00:37:43.749Z,35.38
2024-02-13T00:40:13.891Z,40.17
2024-02-13T00:42:42.328Z,33.42
2024-02-13T00:45:12.878Z,37.03
2024-02-13T00:47:42.726Z,34.20
2024-02-13T00:50:11.674Z,33.15
2024-02-13T00:52:41.886Z,31.42
2024-02-13T00:55:11.126Z,32.88
2024-02-13T00:57:41.076Z,33.72
2024-02-13T01:00:12.302Z,33.78
2024-02-13T01:02:41.424Z,32.50
2024-02-13T01:05:10.524Z,31.20
2024-02-13T01:07:39.822Z,26.85
2024-02-13T01:10:09.331Z,33.08
2024-02-13T01:12:39.024Z,27.88
2024-02-13T01:15:09.519Z,36.25
2024-02-13T01:17:38.148Z,34.30
2024-02-13T01:20:10.277Z,33.22
2024-02-13T01:22:38.821Z,32.30
2024-02-13T01:25:11.048Z,31.73
2024-02-13T01:27:39.898Z,31.40
2024-02-13T01:30:11.043Z,33.25
2024-02-13T01:32:41.670Z,29.63
2024-02-13T01:35:11.898Z,31.35
2024-02-13T01:37:40.944Z,30.55
2024-02-13T01:40:11.161Z,32.90
2024-02-13T01:42:39.664Z,33.38
2024-02-13T01:45:13.687Z,31.48
2024-02-13T01:47:44.303Z,30.83
2024-02-13T01:50:15.479Z,29.05
2024-02-13T01:52:44.612Z,30.73
2024-02-13T01:55:14.563Z,25.73
2024-02-13T01:57:43.450Z,30.15
2024-02-13T02:00:16.088Z,27.65
2024-02-13T02:02:48.929Z,29.83
2024-02-13T02:05:17.681Z,27.77
2024-02-13T02:07:46.680Z,26.90
2024-02-13T02:10:15.710Z,29.27
2024-02-13T02:12:50.830Z,27.77
2024-02-13T02:15:20.722Z,26.80
2024-02-13T02:17:53.898Z,34.50
2024-02-13T02:20:23.705Z,30.05
2024-02-13T02:22:52.697Z,27.77
2024-02-13T02:25:23.187Z,30.17
2024-02-13T02:27:52.045Z,28.90
2024-02-13T02:30:20.865Z,28.52
2024-02-13T02:32:49.820Z,26.38
2024-02-13T02:35:19.135Z,29.73
2024-02-13T02:37:49.772Z,23.33
2024-02-13T02:40:19.717Z,23.17
2024-02-13T02:42:52.853Z,27.70
2024-02-13T02:45:22.046Z,24.02
2024-02-13T02:47:51.244Z,22.50
2024-02-13T02:50:19.857Z,24.23
2024-02-13T02:52:48.437Z,23.05
2024-02-13T02:55:19.010Z,26.98
2024-02-13T02:57:49.252Z,22.80
2024-02-13T03:00:21.669Z,24.20
2024-02-13T03:02:50.569Z,20.55
2024-02-13T03:05:19.409Z,24.52
2024-02-13T03:07:48.172Z,23.17
2024-02-13T03:10:16.823Z,21.83
2024-02-13T03:12:45.781Z,22.05
2024-02-13T03:15:15.726Z,23.02
2024-02-13T03:17:46.419Z,22.38
2024-02-13T03:20:15.290Z,21.20
2024-02-13T03:22:44.026Z,23.73
2024-02-13T03:25:12.525Z,19.42
2024-02-13T03:27:42.427Z,20.30
2024-02-13T03:30:12.541Z,21.08
2024-02-13T03:32:44.901Z,19.20
2024-02-13T03:35:13.609Z,17.85
2024-02-13T03:37:42.170Z,19.83
2024-02-13T03:40:11.705Z,21.88
2024-02-13T03:42:40.187Z,19.52
2024-02-13T03:45:10.905Z,18.10
2024-02-13T03:47:39.987Z,19.00
2024-02-13T03:50:10.333Z,18.80
2024-02-13T03:52:38.893Z,14.45
2024-02-13T03:55:08.050Z,15.82
2024-02-13T03:57:36.925Z,13.85
2024-02-13T04:00:08.603Z,17.20
2024-02-13T04:02:38.166Z,14.80
2024-02-13T04:05:07.366Z,14.05
2024-02-13T04:07:37.284Z,14.23
2024-02-13T04:10:06.315Z,14.07
2024-02-13T04:12:34.834Z,13.88
2024-02-13T04:15:04.704Z,14.80
2024-02-13T04:17:33.305Z,12.40
2024-02-13T04:20:01.866Z,13.27
2024-02-13T04:22:30.345Z,15.25
2024-02-13T04:25:00.200Z,12.95
2024-02-13T04:27:28.875Z,12.77
2024-02-13T04:29:57.844Z,14.43
2024-02-13T04:32:27.573Z,14.18
2024-02-13T04:34:56.169Z,13.32
2024-02-13T04:37:24.949Z,13.57
2024-02-13T04:39:54.135Z,12.68
2024-02-13T04:42:33.439Z,13.85
2024-02-13T04:45:02.580Z,14.55
2024-02-13T04:47:32.036Z,12.77
2024-02-13T04:50:02.207Z,12.40
2024-02-13T04:52:30.737Z,14.25
2024-02-13T04:54:59.393Z,13.95
2024-02-13T04:57:28.451Z,12.70
2024-02-13T04:59:58.550Z,14.77
2024-02-13T05:02:27.642Z,14.30
2024-02-13T05:05:13.905Z,13.25
2024-02-13T05:07:42.717Z,13.18
2024-02-13T05:10:11.307Z,12.48
2024-02-13T05:12:39.862Z,15.15
2024-02-13T05:15:11.888Z,12.98
2024-02-13T05:17:41.295Z,13.57
2024-02-13T05:20:12.668Z,15.15
2024-02-13T05:22:41.327Z,14.40
2024-02-13T05:25:09.966Z,15.25
2024-02-13T05:27:38.433Z,13.75
2024-02-13T05:30:07.969Z,15.20
2024-02-13T05:32:37.968Z,16.85
2024-02-13T05:35:09.157Z,12.82
2024-02-13T05:37:38.976Z,14.20
2024-02-13T05:40:09.359Z,14.70
2024-02-13T05:42:38.072Z,14.50
2024-02-13T05:45:08.278Z,15.25
2024-02-13T05:47:38.704Z,15.15
2024-02-13T05:50:08.877Z,15.70
2024-02-13T05:52:38.459Z,14.20
2024-02-13T05:55:07.847Z,15.52
2024-02-13T05:57:38.265Z,16.95
2024-02-13T06:00:11.293Z,15.63
2024-02-13T06:02:41.429Z,18.00
2024-02-13T06:05:11.221Z,15.57
2024-02-13T06:07:39.877Z,16.90
2024-02-13T06:10:10.380Z,15.35
2024-02-13T06:12:39.821Z,16.30
2024-02-13T06:15:10.327Z,18.13
2024-02-13T06:17:38.900Z,16.52
2024-02-13T06:20:10.136Z,18.63
2024-02-13T06:22:38.705Z,16.98
2024-02-13T06:25:10.043Z,16.83
2024-02-13T06:27:38.557Z,19.30
2024-02-13T06:30:09.025Z,16.52
2024-02-13T06:32:37.742Z,21.60
2024-02-13T06:35:08.428Z,20.55
2024-02-13T06:37:40.851Z,20.63
2024-02-13T06:40:10.565Z,18.45
2024-02-13T06:42:39.356Z,18.60
2024-02-13T06:45:10.532Z,18.27
2024-02-13T06:47:39.853Z,17.10
2024-02-13T06:50:13.475Z,19.15
2024-02-13T06:52:43.441Z,18.40
2024-02-13T06:55:12.242Z,16.15
2024-02-13T06:57:40.799Z,19.20
2024-02-13T07:00:10.472Z,17.52
2024-02-13T07:02:39.268Z,21.63
2024-02-13T07:05:10.652Z,21.67
2024-02-13T07:07:46.716Z,19.67
2024-02-13T07:10:18.053Z,18.30
2024-02-13T07:12:46.932Z,20.15
2024-02-13T07:15:16.259Z,18.75
2024-02-13T07:17:53.037Z,19.42
2024-02-13T07:20:29.971Z,21.02
2024-02-13T07:22:58.626Z,18.83
2024-02-13T07:25:27.139Z,18.67
2024-02-13T07:27:55.607Z,21.05
2024-02-13T07:30:24.136Z,20.15
2024-02-13T07:32:53.257Z,20.73
2024-02-13T07:35:23.296Z,19.02
2024-02-13T07:37:53.422Z,18.10
2024-02-13T07:40:21.962Z,24.52
2024-02-13T07:42:50.436Z,18.73
2024-02-13T07:45:19.271Z,19.48
2024-02-13T07:47:47.960Z,19.85
2024-02-13T07:50:16.974Z,23.73
2024-02-13T07:52:46.978Z,17.75
2024-02-13T07:55:17.043Z,19.50
2024-02-13T07:57:45.557Z,21.13
2024-02-13T08:00:15.817Z,25.08
2024-02-13T08:02:44.406Z,24.65
2024-02-13T08:05:14.088Z,21.75
2024-02-13T08:07:42.709Z,21.23
2024-02-13T08:10:12.389Z,22.90
2024-02-13T08:12:42.442Z,20.83
2024-02-13T08:15:12.623Z,20.55
2024-02-13T08:17:41.142Z,23.23
2024-02-13T08:20:10.806Z,19.83
2024-02-13T08:22:41.135Z,20.63
2024-02-13T08:25:10.512Z,26.95
2024-02-13T08:27:39.192Z,21.65
2024-02-13T08:30:12.292Z,20.17
2024-02-13T08:32:43.075Z,21.65
2024-02-13T08:35:12.377Z,21.30
2024-02-13T08:37:41.038Z,21.77
2024-02-13T08:40:11.160Z,21.58
2024-02-13T08:42:39.629Z,23.10
2024-02-13T08:45:11.118Z,18.77
2024-02-13T08:47:39.941Z,20.65
2024-02-13T08:50:09.825Z,22.52
2024-02-13T08:52:38.382Z,17.70
2024-02-13T08:55:08.512Z,20.63
2024-02-13T08:57:39.213Z,21.42
2024-02-13T09:00:11.566Z,17.45
2024-02-13T09:02:40.484Z,19.15
2024-02-13T09:05:10.263Z,21.75
2024-02-13T09:07:39.867Z,20.45
2024-02-13T09:10:13.293Z,16.85
2024-02-13T09:12:45.743Z,17.67
2024-02-13T09:15:15.697Z,18.40
2024-02-13T09:17:45.647Z,17.42
2024-02-13T09:20:16.864Z,17.20
2024-02-13T09:22:46.717Z,15.52
2024-02-13T09:25:17.498Z,15.07
2024-02-13T09:27:47.852Z,22.98
2024-02-13T09:30:19.191Z,18.85
2024-02-13T09:32:48.867Z,16.67
2024-02-13T09:35:17.771Z,19.90
2024-02-13T09:37:46.994Z,18.90
2024-02-13T09:40:15.942Z,15.20
2024-02-13T09:42:45.297Z,21.08
2024-02-13T09:45:17.413Z,16.92
2024-02-13T09:47:47.834Z,17.90
2024-02-13T09:50:17.392Z,19.60
2024-02-13T09:52:52.835Z,16.92
2024-02-13T09:55:21.900Z,15.95
2024-02-13T09:57:51.562Z,16.27
2024-02-13T10:00:21.155Z,15.73
2024-02-13T10:02:52.250Z,16.98
2024-02-13T10:05:22.476Z,16.52
2024-02-13T10:07:51.692Z,16.35
2024-02-13T10:10:20.299Z,15.05
2024-02-13T10:12:54.790Z,14.48
2024-02-13T10:15:23.871Z,17.13
2024-02-13T10:17:55.631Z,14.70
2024-02-13T10:20:24.551Z,13.45
2024-02-13T10:22:56.066Z,18.42
2024-02-13T10:25:30.719Z,17.25
2024-02-13T10:28:01.507Z,14.65
2024-02-13T10:30:31.275Z,11.35
2024-02-13T10:33:06.805Z,14.57
2024-02-13T10:35:35.729Z,13.90
2024-02-13T10:38:05.087Z,15.95
2024-02-13T10:40:37.001Z,15.63
2024-02-13T10:43:06.099Z,13.15
2024-02-13T10:45:39.376Z,14.77
2024-02-13T10:48:24.251Z,15.02
2024-02-13T10:50:53.593Z,10.43
2024-02-13T10:53:22.800Z,15.85
2024-02-13T10:55:55.477Z,9.65
2024-02-13T10:58:33.009Z,11.98
2024-02-13T11:01:04.790Z,11.82
2024-02-13T11:03:37.398Z,15.85
2024-02-13T11:06:06.933Z,12.98
2024-02-13T11:08:36.011Z,12.00
2024-02-13T11:11:15.431Z,13.40
2024-02-13T11:13:44.543Z,10.38
2024-02-13T11:16:15.150Z,15.60
2024-02-13T11:18:50.594Z,15.18
2024-02-13T11:21:23.436Z,19.73
2024-02-13T11:23:54.656Z,21.48
2024-02-13T11:26:25.108Z,11.65
2024-02-13T11:28:55.230Z,13.20
2024-02-13T11:31:27.494Z,13.80
2024-02-13T11:34:07.361Z,18.00
2024-02-13T11:36:38.347Z,17.00
2024-02-13T11:39:08.699Z,27.38
2024-02-13T11:41:37.587Z,10.80
2024-02-13T11:44:09.497Z,13.15
2024-02-13T11:46:40.706Z,14.00
2024-02-13T11:49:12.344Z,27.42
2024-02-13T11:51:43.002Z,26.85
2024-02-13T11:54:11.818Z,20.20
2024-02-13T11:56:40.994Z,19.90
2024-02-13T11:59:10.719Z,8.48
2024-02-13T12:01:39.674Z,26.35
2024-02-13T12:04:13.094Z,13.10
2024-02-13T12:06:45.042Z,11.57
2024-02-13T12:09:16.462Z,9.93
2024-02-13T12:11:46.319Z,13.30
2024-02-13T12:14:15.547Z,12.93
2024-02-13T12:16:44.290Z,9.32
2024-02-13T12:19:12.905Z,10.30
2024-02-13T12:21:41.511Z,13.00
2024-02-13T12:24:12.715Z,11.35
2024-02-13T12:26:41.851Z,22.92
2024-02-13T12:29:16.623Z,16.80
2024-02-13T12:31:48.387Z,13.20
2024-02-13T12:34:18.012Z,11.63
2024-02-13T12:36:46.973Z,11.38
2024-02-13T12:39:21.522Z,16.15
2024-02-13T12:41:52.603Z,9.60
2024-02-13T12:44:22.273Z,10.88
2024-02-13T12:46:52.853Z,8.77
2024-02-13T12:49:23.586Z,8.23
2024-02-13T12:51:52.871Z,12.38
2024-02-13T12:54:24.680Z,8.93
2024-02-13T12:56:54.385Z,10.32
2024-02-13T12:59:24.002Z,10.50
2024-02-13T13:01:55.174Z,9.15
2024-02-13T13:04:24.418Z,7.80
2024-02-13T13:06:53.267Z,9.57
2024-02-13T13:09:27.876Z,10.80
2024-02-13T13:11:57.970Z,10.93
2024-02-13T13:14:28.762Z,11.18
2024-02-13T13:16:58.016Z,7.63
2024-02-13T13:19:29.613Z,8.43
2024-02-13T13:21:59.264Z,9.00
2024-02-13T13:24:30.328Z,10.70
2024-02-13T13:26:59.021Z,13.55
2024-02-13T13:29:27.647Z,11.75
2024-02-13T13:31:56.654Z,10.18
2024-02-13T13:34:27.225Z,14.60
2024-02-13T13:36:57.292Z,12.80
2024-02-13T13:39:30.701Z,17.00
2024-02-13T13:42:10.097Z,11.50
2024-02-13T13:44:41.730Z,14.05
2024-02-13T13:47:10.400Z,11.82
2024-02-13T13:49:39.453Z,11.00
2024-02-13T13:52:08.828Z,10.07
2024-02-13T13:54:37.519Z,11.00
2024-02-13T13:57:07.980Z,9.70
2024-02-13T13:59:36.669Z,8.90
2024-02-13T14:02:05.545Z,7.82
2024-02-13T14:04:35.007Z,12.07
2024-02-13T14:07:03.605Z,10.00
2024-02-13T14:09:32.188Z,11.05
2024-02-13T14:12:02.078Z,9.93
2024-02-13T14:14:32.362Z,11.63
2024-02-13T14:17:02.173Z,8.55
2024-02-13T14:19:30.784Z,12.40
2024-02-13T14:22:00.443Z,16.77
2024-02-13T14:24:29.100Z,12.27
2024-02-13T14:26:57.706Z,12.57
2024-02-13T14:29:26.535Z,13.05
2024-02-13T14:31:56.535Z,12.38
2024-02-13T14:34:27.873Z,12.88
2024-02-13T14:36:59.666Z,15.05
2024-02-13T14:39:29.270Z,13.95
2024-02-13T14:41:58.016Z,9.98
2024-02-13T14:44:26.711Z,13.45
2024-02-13T14:46:58.612Z,12.48
2024-02-13T14:49:27.821Z,13.10
2024-02-13T14:51:56.484Z,14.23
2024-02-13T14:54:25.007Z,11.07
2024-02-13T14:56:54.321Z,11.70
2024-02-13T14:59:22.911Z,12.55
2024-02-13T15:01:51.996Z,10.88
2024-02-13T15:04:22.046Z,14.00
2024-02-13T15:06:51.302Z,15.05
2024-02-13T15:09:20.408Z,11.77
2024-02-13T15:11:51.718Z,12.43
2024-02-13T15:14:20.542Z,9.13
2024-02-13T15:16:49.792Z,9.13
2024-02-13T15:19:18.522Z,13.88
2024-02-13T15:21:50.064Z,11.90
2024-02-13T15:24:18.771Z,12.07
2024-02-13T15:26:49.021Z,15.20
2024-02-13T15:29:19.634Z,19.05
2024-02-13T15:31:48.333Z,12.27
2024-02-13T15:34:17.411Z,12.95
2024-02-13T15:37:10.769Z,12.55
2024-02-13T15:39:58.126Z,15.40
2024-02-13T15:42:45.540Z,13.45
2024-02-13T15:45:31.624Z,14.38
2024-02-13T15:48:00.867Z,11.02
2024-02-13T15:50:32.870Z,10.23
2024-02-13T15:53:01.650Z,16.33
2024-02-13T15:55:31.832Z,11.68
2024-02-13T15:58:00.575Z,15.27
2024-02-13T16:00:31.964Z,13.85
2024-02-13T16:03:01.700Z,13.40
2024-02-13T16:05:31.481Z,11.45
2024-02-13T16:08:00.706Z,23.50
2024-02-13T16:10:30.558Z,18.17
2024-02-13T16:13:01.736Z,23.90
2024-02-13T16:15:31.951Z,16.30
2024-02-13T16:18:00.927Z,20.52
2024-02-13T16:20:29.761Z,14.98
2024-02-13T16:22:58.816Z,16.98
2024-02-13T16:25:31.338Z,12.75
2024-02-13T16:28:04.589Z,15.88
2024-02-13T16:30:34.399Z,21.27
2024-02-13T16:33:03.721Z,14.35
2024-02-13T16:35:38.121Z,13.68
2024-02-13T16:40:34.933Z,14.15
2024-02-13T16:43:05.778Z,12.13
2024-02-13T16:45:34.384Z,15.85
2024-02-13T16:48:05.115Z,12.35
2024-02-13T16:50:33.789Z,14.90
2024-02-13T16:53:03.565Z,11.40
2024-02-13T16:55:32.085Z,14.20
2024-02-13T16:58:02.334Z,12.40
2024-02-13T17:00:32.560Z,15.23
2024-02-13T17:03:01.574Z,13.27
2024-02-13T17:05:30.214Z,16.08
2024-02-13T17:08:00.468Z,13.25
2024-02-13T17:10:29.009Z,15.57
2024-02-13T17:12:57.569Z,13.75
2024-02-13T17:15:26.048Z,16.25
2024-02-13T17:17:57.982Z,16.30
2024-02-13T17:20:26.866Z,20.83
2024-02-13T17:22:55.633Z,17.48
2024-02-13T17:25:24.524Z,25.25
2024-02-13T17:27:53.056Z,17.25
2024-02-13T17:30:21.741Z,18.55
2024-02-13T17:32:50.491Z,13.85
2024-02-13T17:35:20.707Z,14.90
2024-02-13T17:38:01.150Z,16.60
2024-02-13T17:40:29.979Z,14.95
2024-02-13T17:43:02.035Z,17.92
2024-02-13T17:45:30.715Z,16.15
2024-02-13T17:47:59.419Z,22.35
2024-02-13T17:50:31.402Z,21.55
2024-02-13T17:52:59.947Z,17.42
2024-02-13T17:55:28.832Z,48.90
2024-02-13T17:57:58.405Z,32.90
2024-02-13T18:00:26.974Z,23.30
2024-02-13T18:02:55.959Z,17.95
2024-02-13T18:05:27.662Z,16.58
2024-02-13T18:07:58.608Z,15.75
2024-02-13T18:10:27.581Z,14.30
2024-02-13T18:12:58.988Z,16.40
2024-02-13T18:15:28.435Z,20.83
2024-02-13T18:17:58.620Z,18.38
2024-02-13T18:20:28.273Z,18.90
2024-02-13T18:22:58.406Z,17.17
2024-02-13T18:25:26.937Z,21.05
2024-02-13T18:27:55.415Z,16.98
2024-02-13T18:30:25.568Z,15.88
2024-02-13T18:32:55.508Z,14.10
2024-02-13T18:35:24.195Z,16.35
2024-02-13T18:37:52.711Z,21.15
2024-02-13T18:40:23.901Z,17.23
2024-02-13T18:42:54.543Z,15.80
2024-02-13T18:45:23.461Z,19.98
2024-02-13T18:47:52.151Z,23.33
2024-02-13T18:50:20.783Z,17.52
2024-02-13T18:52:49.529Z,24.08
2024-02-13T18:55:18.075Z,31.13
2024-02-13T18:57:49.590Z,22.05
2024-02-13T19:00:18.664Z,22.02
2024-02-13T19:02:47.178Z,27.00
2024-02-13T19:05:15.963Z,17.95
2024-02-13T19:07:44.557Z,27.02
2024-02-13T19:10:13.216Z,23.95
2024-02-13T19:12:43.888Z,20.15
2024-02-13T19:15:16.256Z,18.85
2024-02-13T19:17:45.316Z,22.33
2024-02-13T19:20:15.817Z,35.35
2024-02-13T19:22:44.592Z,36.05
2024-02-13T19:25:13.435Z,34.67
2024-02-13T19:27:42.212Z,31.85
2024-02-13T19:30:12.381Z,28.20
2024-02-13T19:32:42.922Z,26.67
2024-02-13T19:35:11.619Z,23.60
2024-02-13T19:37:40.254Z,18.27
2024-02-13T19:40:10.671Z,18.85
2024-02-13T19:42:39.269Z,21.20
2024-02-13T19:45:08.478Z,34.65
2024-02-13T19:47:37.727Z,51.05
2024-02-13T19:50:09.411Z,22.75
2024-02-13T19:52:39.201Z,18.73
2024-02-13T19:55:09.986Z,20.08
2024-02-13T19:57:38.886Z,26.55
2024-02-13T20:00:10.821Z,20.98
2024-02-13T20:02:39.740Z,20.83
2024-02-13T20:05:10.521Z,18.38
2024-02-13T20:07:39.724Z,30.20
2024-02-13T20:10:09.215Z,29.52
2024-02-13T20:12:37.975Z,22.83
2024-02-13T20:15:07.699Z,17.25
2024-02-13T20:17:36.573Z,20.77
2024-02-13T20:20:06.524Z,23.58
2024-02-13T20:22:36.454Z,21.73
2024-02-13T20:25:05.546Z,15.85
2024-02-13T20:27:34.147Z,18.40
2024-02-13T20:30:02.853Z,18.63
2024-02-13T20:32:31.561Z,18.13
2024-02-13T20:35:00.122Z,20.15
2024-02-13T20:37:28.944Z,18.92
2024-02-13T20:39:59.143Z,18.65
2024-02-13T20:42:29.193Z,34.70
2024-02-13T20:45:07.179Z,35.75
2024-02-13T20:47:44.066Z,36.35
2024-02-13T20:50:13.816Z,24.98
2024-02-13T20:52:42.918Z,28.60
2024-02-13T20:55:15.016Z,27.40
2024-02-13T20:57:44.854Z,20.05
2024-02-13T21:00:14.952Z,26.38
2024-02-13T21:02:44.688Z,20.15
2024-02-13T21:05:13.445Z,24.27
2024-02-13T21:07:42.382Z,28.33
2024-02-13T21:10:13.548Z,21.95
2024-02-13T21:12:42.070Z,23.15
2024-02-13T21:15:13.267Z,35.90
2024-02-13T21:17:42.595Z,51.55
2024-02-13T21:20:13.412Z,34.35
2024-02-13T21:23:03.834Z,31.90
2024-02-13T21:25:34.909Z,25.88
2024-02-13T21:28:03.419Z,20.73
2024-02-13T21:30:33.316Z,16.58
2024-02-13T21:33:02.100Z,16.63
2024-02-13T21:35:30.688Z,15.43
2024-02-13T21:37:59.450Z,16.05
2024-02-13T21:40:28.143Z,15.75
2024-02-13T21:42:58.127Z,15.60
2024-02-13T21:45:28.232Z,19.25
2024-02-13T21:47:56.938Z,23.45
2024-02-13T21:50:26.307Z,18.30
2024-02-13T21:52:55.881Z,19.90
2024-02-13T21:55:27.537Z,18.95
2024-02-13T21:58:02.783Z,19.05
2024-02-13T22:00:36.528Z,19.83
2024-02-13T22:03:09.057Z,18.95
2024-02-13T22:05:41.553Z,18.05
2024-02-13T22:08:19.849Z,20.25
2024-02-13T22:10:56.021Z,18.65
2024-02-13T22:13:33.267Z,18.20
2024-02-13T22:16:09.563Z,20.90
2024-02-13T22:18:43.654Z,19.10
2024-02-13T22:21:25.503Z,21.17
2024-02-13T22:23:59.617Z,23.63
2024-02-13T22:26:39.022Z,24.35
2024-02-13T22:29:30.807Z,21.90
2024-02-13T22:32:05.200Z,15.93
2024-02-13T22:34:40.887Z,18.30
2024-02-13T22:37:13.001Z,19.48
2024-02-13T22:39:44.748Z,16.63
2024-02-13T22:42:18.710Z,20.33
2024-02-13T22:44:49.614Z,18.77
2024-02-13T22:47:20.831Z,21.23
2024-02-13T22:49:59.264Z,19.02
2024-02-13T22:52:41.077Z,19.75
2024-02-13T22:55:12.787Z,18.98
2024-02-13T22:57:50.216Z,19.42
2024-02-13T23:00:40.356Z,18.25
2024-02-13T23:03:38.850Z,19.50
2024-02-13T23:06:18.423Z,20.67
2024-02-13T23:09:03.261Z,22.15
2024-02-13T23:11:48.627Z,18.20
2024-02-13T23:14:35.519Z,19.75
2024-02-13T23:17:22.907Z,19.33
2024-02-13T23:19:56.944Z,19.58
2024-02-13T23:22:33.461Z,16.88
2024-02-13T23:25:15.426Z,20.77
2024-02-13T23:28:01.510Z,17.92
2024-02-13T23:30:31.095Z,16.60
2024-02-13T23:33:01.316Z,24.00
2024-02-13T23:35:29.982Z,20.50
2024-02-13T23:37:58.538Z,17.88
2024-02-13T23:40:27.009Z,17.05
2024-02-13T23:42:55.758Z,18.38
2024-02-13T23:45:24.533Z,18.80
2024-02-13T23:47:53.382Z,20.05
2024-02-13T23:50:23.320Z,16.92
2024-02-13T23:52:52.496Z,17.92
2024-02-13T23:55:20.998Z,17.08
2024-02-13T23:57:49.520Z,20.27
